Time;durP1;ratioP1;P1;durP2;ratioP2;P2;SDS_P1;SDS_P2;PMS_P1;PMS_P2;Temp;Humidity;BMP_temperature;BMP_pressure;BME280_temperature;BME280_humidity;BME280_pressure;Samples;Min_cycle;Max_cycle;Signal;HPM_P1;HPM_P2
2023/12/02 00:01:44;;;;;;;55.27;35.63;;;;;;;5.99;100.00;99010.34;5074468;28;20197;-72
2023/12/02 00:04:11;;;;;;;63.77;35.30;;;;;;;6.01;100.00;99003.09;5074131;28;20638;-72
2023/12/02 00:06:38;;;;;;;51.87;35.47;;;;;;;6.01;100.00;99004.91;5074149;28;20858;-72
2023/12/02 00:09:04;;;;;;;54.10;35.90;;;;;;;6.01;100.00;99007.53;5074455;28;20253;-71
2023/12/02 00:11:31;;;;;;;52.37;34.73;;;;;;;5.92;100.00;99012.06;5074135;28;20601;-74
2023/12/02 00:13:59;;;;;;;53.57;33.87;;;;;;;5.97;100.00;99014.16;5074236;28;20203;-73
2023/12/02 00:16:25;;;;;;;57.30;34.90;;;;;;;5.99;100.00;99022.69;5073712;28;20192;-75
2023/12/02 00:18:54;;;;;;;68.37;36.63;;;;;;;5.99;100.00;99014.78;5073642;28;20193;-72
2023/12/02 00:21:21;;;;;;;64.73;36.30;;;;;;;5.91;100.00;99012.25;5072990;28;20207;-72
2023/12/02 00:23:48;;;;;;;61.27;36.83;;;;;;;5.90;100.00;99005.31;5073913;28;20231;-72
2023/12/02 00:26:15;;;;;;;61.23;36.67;;;;;;;5.69;100.00;98972.53;5074316;28;20199;-71
2023/12/02 00:28:41;;;;;;;52.30;35.07;;;;;;;5.89;100.00;99006.34;5074060;28;20200;-73
2023/12/02 00:31:08;;;;;;;56.10;35.50;;;;;;;5.84;100.00;98990.25;5074302;28;20232;-74
2023/12/02 00:33:35;;;;;;;58.67;34.47;;;;;;;5.83;100.00;98988.59;5073813;28;20196;-73
2023/12/02 00:36:04;;;;;;;59.30;36.77;;;;;;;5.86;100.00;98996.13;5073927;28;20196;-73
2023/12/02 00:38:31;;;;;;;61.20;37.47;;;;;;;5.89;100.00;98991.34;5073814;28;20204;-75
2023/12/02 00:40:58;;;;;;;62.23;37.17;;;;;;;5.70;100.00;98968.91;5073805;28;20282;-75
2023/12/02 00:43:25;;;;;;;60.70;36.03;;;;;;;5.78;100.00;98976.75;5073649;28;20224;-75
2023/12/02 00:45:52;;;;;;;66.63;37.53;;;;;;;5.72;100.00;98974.81;5073579;28;20252;-74
2023/12/02 00:48:19;;;;;;;68.13;39.20;;;;;;;5.69;100.00;98977.00;5073732;28;20254;-75
2023/12/02 00:50:45;;;;;;;68.57;40.00;;;;;;;5.66;100.00;98977.34;5073400;28;20565;-75
2023/12/02 00:53:14;;;;;;;67.70;40.07;;;;;;;5.70;100.00;98984.72;5073168;28;20195;-75
2023/12/02 00:55:40;;;;;;;63.87;39.57;;;;;;;5.74;100.00;98980.75;5073675;28;20283;-75
2023/12/02 00:58:07;;;;;;;66.83;39.07;;;;;;;5.77;100.00;98975.09;5073284;28;20647;-75
2023/12/02 01:00:34;;;;;;;65.23;35.07;;;;;;;5.72;100.00;98966.91;5072990;28;20192;-73
2023/12/02 01:03:00;;;;;;;65.47;39.20;;;;;;;5.75;100.00;98971.84;5073340;28;20224;-73
2023/12/02 01:05:27;;;;;;;58.73;38.47;;;;;;;5.71;100.00;98975.81;5073136;28;20200;-73
2023/12/02 01:07:54;;;;;;;65.57;37.97;;;;;;;5.55;100.00;98978.59;5073079;28;20659;-73
2023/12/02 01:10:22;;;;;;;61.00;38.33;;;;;;;5.57;100.00;98987.13;5073270;28;20253;-73
2023/12/02 01:12:49;;;;;;;59.63;35.33;;;;;;;5.50;100.00;98986.19;5073422;28;20191;-73
2023/12/02 01:15:15;;;;;;;58.63;37.30;;;;;;;5.55;100.00;98990.94;5073019;28;20201;-74
2023/12/02 01:17:42;;;;;;;58.93;36.00;;;;;;;5.57;100.00;98984.47;5073043;28;20195;-73
2023/12/02 01:20:10;;;;;;;58.50;36.50;;;;;;;5.65;100.00;98971.25;5073089;28;20333;-73
2023/12/02 01:22:37;;;;;;;58.00;35.90;;;;;;;5.69;100.00;98972.53;5073060;28;20315;-73
2023/12/02 01:25:04;;;;;;;64.33;37.93;;;;;;;5.70;100.00;98966.28;5072903;28;20196;-73
2023/12/02 01:27:32;;;;;;;60.93;36.33;;;;;;;5.70;100.00;98963.66;5072976;28;20285;-73
2023/12/02 01:29:59;;;;;;;54.47;36.73;;;;;;;5.73;100.00;98965.91;5072687;28;20319;-73
2023/12/02 01:32:26;;;;;;;56.90;36.80;;;;;;;5.77;100.00;98974.28;5072353;28;20187;-75
2023/12/02 01:34:52;;;;;;;68.83;38.00;;;;;;;5.76;100.00;98978.72;5072260;28;20196;-74
2023/12/02 01:37:19;;;;;;;58.17;37.47;;;;;;;5.81;100.00;98958.97;5056236;28;20202;-75
2023/12/02 01:39:46;;;;;;;53.90;35.10;;;;;;;5.84;100.00;98964.69;5052732;28;20659;-74
2023/12/02 01:42:13;;;;;;;62.87;37.47;;;;;;;5.82;100.00;98966.69;5052780;28;20254;-74
2023/12/02 01:44:41;;;;;;;64.17;38.10;;;;;;;5.86;100.00;98988.22;5052307;28;20199;-74
2023/12/02 01:47:08;;;;;;;60.07;37.07;;;;;;;5.86;100.00;98982.97;5052261;28;20668;-75
2023/12/02 01:49:36;;;;;;;60.40;37.17;;;;;;;5.88;100.00;98971.25;5052467;28;20262;-74
2023/12/02 01:52:04;;;;;;;63.27;37.73;;;;;;;5.83;100.00;98978.06;5052305;28;20675;-74
2023/12/02 01:54:30;;;;;;;62.33;36.23;;;;;;;5.75;100.00;98971.84;5052049;28;20662;-74
2023/12/02 01:56:57;;;;;;;62.53;38.77;;;;;;;5.70;100.00;98968.91;5052552;28;20254;-74
2023/12/02 01:59:24;;;;;;;68.33;41.37;;;;;;;5.64;100.00;98969.63;5051985;28;20641;-74
2023/12/02 02:01:52;;;;;;;62.13;37.17;;;;;;;5.67;100.00;98966.63;5052480;28;20619;-74
2023/12/02 02:04:19;;;;;;;56.93;36.57;;;;;;;5.65;100.00;98955.44;5051744;28;20266;-74
2023/12/02 02:06:46;;;;;;;56.03;35.27;;;;;;;5.58;100.00;98944.00;5052172;28;20576;-74
2023/12/02 02:09:13;;;;;;;57.53;34.53;;;;;;;5.52;100.00;98949.16;5051550;28;20192;-74
2023/12/02 02:11:40;;;;;;;62.97;35.60;;;;;;;5.47;100.00;98962.84;5051163;28;20196;-74
2023/12/02 02:14:07;;;;;;;57.77;35.73;;;;;;;5.41;100.00;98953.03;5051568;28;20198;-74
2023/12/02 02:16:33;;;;;;;54.47;34.17;;;;;;;5.46;100.00;98966.47;5051676;28;20617;-71
2023/12/02 02:19:02;;;;;;;56.20;35.43;;;;;;;5.54;100.00;98958.53;5051622;28;20193;-71
2023/12/02 02:21:30;;;;;;;54.90;35.10;;;;;;;5.56;100.00;98945.97;5051937;28;20200;-71
2023/12/02 02:23:56;;;;;;;54.27;34.67;;;;;;;5.64;100.00;98948.53;5051451;28;20600;-72
2023/12/02 02:26:23;;;;;;;50.67;34.07;;;;;;;5.67;100.00;98937.66;5051676;28;20247;-71
2023/12/02 02:28:50;;;;;;;51.10;34.63;;;;;;;5.61;100.00;98927.81;5051395;28;20196;-72
2023/12/02 02:31:17;;;;;;;50.33;33.27;;;;;;;5.65;100.00;98934.38;5051572;28;20197;-73
2023/12/02 02:33:43;;;;;;;43.53;31.17;;;;;;;5.64;100.00;98927.47;5051608;28;20201;-72
2023/12/02 02:36:11;;;;;;;53.17;33.60;;;;;;;5.51;100.00;98931.69;5058529;28;20564;-74
2023/12/02 02:38:39;;;;;;;55.47;34.13;;;;;;;5.42;100.00;98928.31;5071829;28;20195;-74
2023/12/02 02:41:07;;;;;;;51.50;32.33;;;;;;;5.39;100.00;98928.69;5071475;28;20663;-73
2023/12/02 02:43:33;;;;;;;50.90;33.83;;;;;;;5.35;100.00;98911.59;5071368;28;20227;-73
2023/12/02 02:46:00;;;;;;;52.83;32.93;;;;;;;5.43;100.00;98895.72;5071437;28;20632;-73
2023/12/02 02:48:27;;;;;;;53.00;33.17;;;;;;;5.46;100.00;98903.28;5071661;28;20193;-74
2023/12/02 02:50:53;;;;;;;49.17;31.57;;;;;;;5.36;100.00;98907.97;5071485;28;20197;-73
2023/12/02 02:53:20;;;;;;;50.63;31.13;;;;;;;5.43;100.00;98900.16;5071114;28;20729;-73
2023/12/02 02:55:48;;;;;;;50.10;32.33;;;;;;;5.53;100.00;98898.13;5071572;28;20200;-72
2023/12/02 02:58:15;;;;;;;43.17;29.03;;;;;;;5.51;100.00;98900.91;5071658;28;20187;-72
2023/12/02 03:00:42;;;;;;;42.70;29.37;;;;;;;5.58;100.00;98895.75;5071509;28;20206;-74
2023/12/02 03:03:09;;;;;;;44.30;30.83;;;;;;;5.61;100.00;98896.19;5070943;28;20235;-74
2023/12/02 03:05:35;;;;;;;46.50;32.57;;;;;;;5.69;100.00;98909.31;5071043;28;20192;-73
2023/12/02 03:08:02;;;;;;;43.07;29.03;;;;;;;5.75;100.00;98887.53;5071505;28;20203;-73
2023/12/02 03:10:29;;;;;;;48.47;29.40;;;;;;;5.83;100.00;98889.28;5071384;28;20219;-74
2023/12/02 03:12:57;;;;;;;54.10;31.53;;;;;;;5.84;100.00;98883.00;5070455;28;20195;-74
2023/12/02 03:15:23;;;;;;;47.10;29.40;;;;;;;5.88;100.00;98872.94;5070894;28;20201;-75
2023/12/02 03:17:50;;;;;;;40.83;28.57;;;;;;;5.94;100.00;98891.47;5070395;28;20200;-74
2023/12/02 03:20:17;;;;;;;43.77;29.63;;;;;;;5.90;100.00;98884.94;5070525;28;20207;-74
2023/12/02 03:22:45;;;;;;;41.87;26.70;;;;;;;5.96;100.00;98883.38;5071843;28;20299;-73
2023/12/02 03:25:12;;;;;;;41.17;27.07;;;;;;;6.00;100.00;98895.19;5075368;28;20232;-73
2023/12/02 03:27:39;;;;;;;40.43;26.63;;;;;;;5.98;100.00;98905.09;5075321;28;20655;-73
2023/12/02 03:30:08;;;;;;;35.70;25.40;;;;;;;5.98;100.00;98894.56;5075229;28;20234;-73
2023/12/02 03:32:38;;;;;;;37.83;27.03;;;;;;;5.96;100.00;98886.03;5074699;28;20192;-74
2023/12/02 03:35:06;;;;;;;36.60;25.73;;;;;;;6.01;100.00;98881.03;5075283;28;20579;-73
2023/12/02 03:37:32;;;;;;;38.53;26.70;;;;;;;6.09;100.00;98878.28;5074769;28;20203;-73
2023/12/02 03:39:59;;;;;;;39.50;26.60;;;;;;;6.06;100.00;98889.19;5075034;28;20208;-72
2023/12/02 03:42:26;;;;;;;36.50;26.83;;;;;;;6.05;100.00;98884.94;5074502;28;20257;-73
2023/12/02 03:44:53;;;;;;;35.20;25.07;;;;;;;6.06;100.00;98889.19;5074488;28;20223;-73
2023/12/02 03:47:21;;;;;;;38.53;25.13;;;;;;;6.03;100.00;98895.66;5074890;28;20251;-74
2023/12/02 03:49:47;;;;;;;43.07;26.57;;;;;;;6.04;100.00;98896.47;5074848;28;20192;-74
2023/12/02 03:52:14;;;;;;;42.53;28.80;;;;;;;6.00;100.00;98893.38;5074907;28;20187;-73
2023/12/02 03:54:41;;;;;;;41.07;28.17;;;;;;;5.87;100.00;98905.56;5074517;28;20249;-73
2023/12/02 03:57:07;;;;;;;41.83;28.73;;;;;;;5.92;100.00;98896.09;5074295;28;20192;-74
2023/12/02 03:59:35;;;;;;;44.60;30.83;;;;;;;5.86;100.00;98894.19;5074185;28;20192;-74
2023/12/02 04:02:01;;;;;;;40.17;28.20;;;;;;;5.85;100.00;98891.72;5074187;28;20196;-74
2023/12/02 04:04:29;;;;;;;45.37;30.53;;;;;;;5.88;100.00;98886.09;5074469;28;20311;-74
2023/12/02 04:06:56;;;;;;;45.93;32.43;;;;;;;5.47;100.00;98857.50;5074441;28;20246;-73
2023/12/02 04:09:23;;;;;;;45.77;31.20;;;;;;;5.59;100.00;98876.31;5074610;28;20261;-74
2023/12/02 04:11:49;;;;;;;49.07;30.90;;;;;;;5.62;100.00;98881.22;5074088;28;20257;-74
2023/12/02 04:14:16;;;;;;;46.50;28.97;;;;;;;5.59;100.00;98865.78;5074103;28;20201;-74
2023/12/02 04:16:43;;;;;;;39.63;28.67;;;;;;;5.64;100.00;98853.69;5074211;28;20191;-75
2023/12/02 04:19:10;;;;;;;42.00;30.10;;;;;;;5.62;100.00;98837.28;5074298;28;20193;-74
2023/12/02 04:21:42;;;;;;;51.87;31.87;;;;;;;5.62;100.00;98855.72;5074264;28;20225;-74
2023/12/02 04:24:09;;;;;;;76.27;42.83;;;;;;;5.50;100.00;98841.34;5074313;28;20212;-75
2023/12/02 04:26:37;;;;;;;94.37;48.50;;;;;;;5.28;100.00;98842.19;5073869;28;20223;-74
2023/12/02 04:29:04;;;;;;;79.90;43.87;;;;;;;5.36;100.00;98839.50;5073759;28;20200;-74
2023/12/02 04:31:32;;;;;;;83.23;42.13;;;;;;;5.25;100.00;98823.31;5073999;28;20632;-72
2023/12/02 04:34:00;;;;;;;80.80;41.93;;;;;;;5.25;100.00;98863.63;5073366;28;20200;-73
2023/12/02 04:36:26;;;;;;;75.47;37.90;;;;;;;5.22;100.00;98869.25;5072907;28;20275;-73
2023/12/02 04:38:55;;;;;;;59.23;36.00;;;;;;;5.26;100.00;98891.59;5074077;28;20292;-72
2023/12/02 04:41:23;;;;;;;88.80;45.73;;;;;;;5.32;100.00;98895.34;5073122;28;20655;-73
2023/12/02 04:43:49;;;;;;;87.87;46.93;;;;;;;5.38;100.00;98889.34;5073336;28;20280;-73
2023/12/02 04:46:17;;;;;;;80.13;45.50;;;;;;;5.42;100.00;98885.38;5073367;28;20627;-75
2023/12/02 04:48:43;;;;;;;54.70;35.03;;;;;;;5.44;100.00;98878.91;5073430;28;20257;-75
2023/12/02 04:51:10;;;;;;;73.73;39.77;;;;;;;5.45;100.00;98870.03;5073246;28;20189;-75
2023/12/02 04:53:37;;;;;;;68.43;38.90;;;;;;;5.41;100.00;98874.03;5106054;28;20200;-74
2023/12/02 04:56:06;;;;;;;59.03;35.63;;;;;;;5.38;100.00;98853.31;5073401;28;20203;-75
2023/12/02 04:58:33;;;;;;;51.77;33.70;;;;;;;5.41;100.00;98865.31;5073530;28;20199;-74
2023/12/02 05:01:00;;;;;;;60.43;35.90;;;;;;;5.35;100.00;98880.00;5073159;28;20207;-74
2023/12/02 05:03:27;;;;;;;56.87;36.50;;;;;;;5.13;100.00;98864.22;5073393;28;20192;-74
2023/12/02 05:05:53;;;;;;;63.27;37.63;;;;;;;5.05;100.00;98878.28;5073065;28;20192;-73
2023/12/02 05:08:20;;;;;;;64.70;39.40;;;;;;;5.09;100.00;98861.16;5072953;28;20562;-73
2023/12/02 05:10:47;;;;;;;68.37;41.80;;;;;;;5.06;100.00;98879.91;5073435;28;20200;-73
2023/12/02 05:13:15;;;;;;;69.37;42.13;;;;;;;4.79;100.00;98856.75;5073375;28;20188;-72
2023/12/02 05:15:41;;;;;;;62.23;39.43;;;;;;;4.75;100.00;98876.50;5073037;28;20208;-72
2023/12/02 05:18:08;;;;;;;63.23;37.03;;;;;;;4.36;100.00;98857.34;5072111;28;20282;-72
2023/12/02 05:20:35;;;;;;;51.63;34.80;;;;;;;4.52;100.00;98870.41;5072134;28;20184;-74
2023/12/02 05:23:02;;;;;;;62.13;36.77;;;;;;;4.64;100.00;98853.25;5072824;28;20660;-66
2023/12/02 05:25:28;;;;;;;57.23;34.23;;;;;;;4.71;100.00;98846.28;5072830;28;20477;-66
2023/12/02 05:27:55;;;;;;;59.73;37.27;;;;;;;4.77;100.00;98874.53;5071254;28;20215;-67
2023/12/02 05:30:23;;;;;;;53.20;34.83;;;;;;;4.64;100.00;98848.00;5072504;28;20764;-67
2023/12/02 05:32:51;;;;;;;54.30;36.13;;;;;;;4.71;100.00;98859.44;5072268;28;20215;-67
2023/12/02 05:35:18;;;;;;;54.57;34.57;;;;;;;4.68;100.00;98849.28;5071940;28;20628;-67
2023/12/02 05:37:45;;;;;;;61.47;35.97;;;;;;;4.73;100.00;98861.88;5073621;28;20287;-67
2023/12/02 05:40:12;;;;;;;62.47;38.97;;;;;;;4.67;100.00;98839.75;5072025;28;20717;-67
2023/12/02 05:42:39;;;;;;;51.10;33.13;;;;;;;4.67;100.00;98847.66;5070690;28;20194;-68
2023/12/02 05:45:07;;;;;;;69.87;37.30;;;;;;;4.78;100.00;98855.13;5070315;28;20699;-68
2023/12/02 05:47:35;;;;;;;72.77;41.63;;;;;;;4.90;100.00;98858.97;5070988;28;20184;-67
2023/12/02 05:50:02;;;;;;;60.10;37.80;;;;;;;4.90;100.00;98843.19;5068735;28;20188;-67
2023/12/02 05:52:29;;;;;;;72.03;39.53;;;;;;;5.00;100.00;98864.00;5070976;28;20192;-71
2023/12/02 05:54:56;;;;;;;69.77;39.83;;;;;;;5.11;100.00;98859.13;5072517;28;20541;-68
2023/12/02 05:57:23;;;;;;;63.87;38.63;;;;;;;5.21;100.00;98841.31;5071289;28;20241;-69
2023/12/02 05:59:51;;;;;;;64.70;38.63;;;;;;;5.27;100.00;98852.94;5071127;28;20196;-67
2023/12/02 06:02:17;;;;;;;55.73;38.23;;;;;;;5.38;100.00;98858.59;5064154;28;20223;-68
2023/12/02 06:04:45;;;;;;;52.10;33.90;;;;;;;5.43;100.00;98860.66;5067885;28;20372;-68
2023/12/02 06:07:12;;;;;;;52.27;33.23;;;;;;;5.56;100.00;98861.69;5071383;28;20226;-67
2023/12/02 06:09:42;;;;;;;49.33;32.00;;;;;;;5.74;100.00;98862.19;5069249;28;20265;-67
2023/12/02 06:12:09;;;;;;;54.00;31.90;;;;;;;5.90;100.00;98863.00;5074080;28;20196;-67
2023/12/02 06:14:35;;;;;;;54.47;34.77;;;;;;;5.91;100.00;98867.31;5072137;28;20191;-68
2023/12/02 06:17:03;;;;;;;54.40;36.40;;;;;;;5.90;100.00;98884.94;5071510;28;20245;-68
2023/12/02 06:19:30;;;;;;;52.77;33.73;;;;;;;5.96;100.00;98883.38;5072458;28;20194;-68
2023/12/02 06:21:58;;;;;;;52.30;33.00;;;;;;;6.02;100.00;98870.28;5074866;28;20218;-68
2023/12/02 06:24:24;;;;;;;47.57;31.13;;;;;;;6.11;100.00;98860.47;5072855;28;20276;-66
2023/12/02 06:26:51;;;;;;;42.07;29.27;;;;;;;6.13;100.00;98847.94;5070236;28;20265;-66
2023/12/02 06:29:18;;;;;;;42.43;29.83;;;;;;;6.27;100.00;98876.91;5070297;28;20284;-66
2023/12/02 06:31:45;;;;;;;43.83;27.70;;;;;;;6.14;100.00;98878.56;5070644;28;20245;-67
2023/12/02 06:34:11;;;;;;;45.70;29.13;;;;;;;6.15;100.00;98867.00;5070606;28;20203;-68
2023/12/02 06:36:38;;;;;;;41.27;27.70;;;;;;;6.10;100.00;98858.84;5080868;28;20192;-64
2023/12/02 06:39:07;;;;;;;41.17;28.37;;;;;;;6.23;100.00;98870.38;5085604;28;20612;-67
2023/12/02 06:41:34;;;;;;;40.00;27.70;;;;;;;6.17;100.00;98870.28;5090806;28;20189;-67
2023/12/02 06:44:00;;;;;;;43.67;28.97;;;;;;;6.29;100.00;98868.81;5090939;28;20644;-63
2023/12/02 06:46:27;;;;;;;45.33;29.67;;;;;;;6.30;100.00;98881.00;5091478;28;20256;-66
2023/12/02 06:48:54;;;;;;;45.07;28.73;;;;;;;6.40;100.00;98865.72;5091546;28;20277;-66
2023/12/02 06:51:21;;;;;;;43.47;28.43;;;;;;;6.48;100.00;98862.94;5090572;28;20197;-75
2023/12/02 06:53:48;;;;;;;47.50;28.77;;;;;;;6.48;100.00;98865.59;5071406;28;20202;-75
2023/12/02 06:56:21;;;;;;;43.07;28.30;;;;;;;6.40;100.00;98876.28;5077136;28;20698;-75
2023/12/02 06:58:49;;;;;;;44.97;31.17;;;;;;;6.46;100.00;98862.34;5072630;28;20378;-74
2023/12/02 07:01:26;;;;;;;52.93;30.83;;;;;;;6.62;100.00;98880.59;5072597;28;20203;-75
2023/12/02 07:03:53;;;;;;;40.53;28.10;;;;;;;6.72;100.00;98876.63;5071907;28;20275;-75
2023/12/02 07:06:20;;;;;;;44.07;29.60;;;;;;;6.90;100.00;98889.41;5072185;28;20291;-75
2023/12/02 07:08:47;;;;;;;41.30;28.93;;;;;;;7.08;100.00;98909.09;5071080;28;20194;-75
2023/12/02 07:11:14;;;;;;;40.57;29.30;;;;;;;7.17;99.99;98902.69;5085611;28;20199;-74
2023/12/02 07:13:43;;;;;;;38.77;27.57;;;;;;;7.33;99.00;98917.47;5091298;28;20239;-73
2023/12/02 07:16:10;;;;;;;43.00;28.07;;;;;;;7.36;97.08;98915.28;5090437;28;20201;-74
2023/12/02 07:18:37;;;;;;;47.33;28.37;;;;;;;7.37;96.92;98910.78;5090686;28;20662;-75
2023/12/02 07:21:04;;;;;;;46.47;33.37;;;;;;;7.39;96.92;98908.78;5089087;28;20194;-75
2023/12/02 07:23:31;;;;;;;41.50;30.13;;;;;;;7.36;96.91;98901.25;5089644;28;20709;-75
2023/12/02 07:25:58;;;;;;;55.33;33.27;;;;;;;7.41;97.05;98877.69;5090237;28;20229;-76
2023/12/02 07:28:25;;;;;;;42.93;29.83;;;;;;;7.38;96.90;98870.97;5091040;28;20265;-75
2023/12/02 07:30:54;;;;;;;40.10;27.07;;;;;;;7.45;96.96;98892.16;5091526;28;20226;-75
2023/12/02 07:33:21;;;;;;;38.17;25.43;;;;;;;7.33;97.15;98896.31;5091787;28;20227;-75
2023/12/02 07:35:48;;;;;;;41.40;29.90;;;;;;;7.35;96.53;98891.69;5087046;28;20257;-75
2023/12/02 07:38:15;;;;;;;36.43;27.20;;;;;;;7.37;97.13;98897.59;5070773;28;20214;-75
2023/12/02 07:40:42;;;;;;;34.57;24.13;;;;;;;7.43;97.80;98883.63;5069756;28;20291;-76
2023/12/02 07:43:09;;;;;;;33.50;24.13;;;;;;;7.48;97.55;98868.81;5070041;28;20613;-75
2023/12/02 07:45:36;;;;;;;46.57;25.90;;;;;;;7.54;97.78;98894.50;5070037;28;20285;-75
2023/12/02 07:48:04;;;;;;;35.70;24.10;;;;;;;7.45;96.82;98895.63;5070092;28;20202;-75
2023/12/02 07:50:31;;;;;;;38.10;24.47;;;;;;;7.56;97.31;98904.88;5069885;28;20668;-75
2023/12/02 07:52:58;;;;;;;30.07;22.13;;;;;;;7.53;97.36;98902.59;5070269;28;20199;-74
2023/12/02 07:55:24;;;;;;;33.07;22.43;;;;;;;7.54;97.37;98898.94;5070443;28;20253;-75
2023/12/02 07:57:51;;;;;;;33.30;22.83;;;;;;;7.55;96.85;98905.88;5070423;28;20204;-75
2023/12/02 08:00:18;;;;;;;31.33;20.83;;;;;;;7.51;96.95;98920.47;5070355;28;20194;-75
2023/12/02 08:02:45;;;;;;;33.80;21.20;;;;;;;7.51;98.25;98925.78;5070386;28;20276;-75
2023/12/02 08:05:13;;;;;;;32.30;22.87;;;;;;;7.46;96.68;98934.25;5070907;28;20286;-75
2023/12/02 08:07:41;;;;;;;26.20;22.23;;;;;;;7.31;96.82;98937.97;5070497;28;20192;-75
2023/12/02 08:10:09;;;;;;;31.83;23.03;;;;;;;7.37;97.07;98950.41;5071979;28;20194;-75
2023/12/02 08:12:36;;;;;;;32.40;23.87;;;;;;;7.26;97.65;98943.81;5073986;28;20199;-75
2023/12/02 08:15:03;;;;;;;27.27;23.10;;;;;;;7.18;98.90;98940.50;5073928;28;20200;-75
2023/12/02 08:17:30;;;;;;;49.87;27.67;;;;;;;7.14;98.95;98958.50;5073525;28;20231;-75
2023/12/02 08:19:56;;;;;;;35.70;24.70;;;;;;;7.19;100.00;98948.19;5073872;28;20200;-74
2023/12/02 08:22:25;;;;;;;33.07;25.07;;;;;;;7.14;100.00;98940.03;5073647;28;20237;-75
2023/12/02 08:24:52;;;;;;;40.77;27.60;;;;;;;7.19;100.00;98921.00;5073399;28;20375;-75
2023/12/02 08:27:18;;;;;;;53.17;32.57;;;;;;;7.40;100.00;98928.91;5074165;28;20199;-75
2023/12/02 08:29:45;;;;;;;55.23;33.17;;;;;;;7.44;100.00;98924.88;5073756;28;20292;-75
2023/12/02 08:32:12;;;;;;;46.33;31.13;;;;;;;7.52;100.00;98927.41;5074098;28;20200;-75
2023/12/02 08:34:39;;;;;;;42.80;27.90;;;;;;;7.55;99.99;98927.81;5073428;28;20199;-75
2023/12/02 08:37:08;;;;;;;41.50;27.83;;;;;;;7.67;100.00;98931.59;5073647;28;20192;-75
2023/12/02 08:39:37;;;;;;;39.80;25.13;;;;;;;7.72;99.09;98923.88;5074251;28;20302;-75
2023/12/02 08:42:04;;;;;;;35.50;25.20;;;;;;;7.80;99.15;98909.72;5073399;28;20191;-75
2023/12/02 08:44:31;;;;;;;35.70;23.90;;;;;;;7.75;99.24;98907.66;5073219;28;20256;-75
2023/12/02 08:47:00;;;;;;;38.00;26.17;;;;;;;7.72;98.43;98899.31;5073922;28;20196;-75
2023/12/02 08:49:27;;;;;;;51.33;31.40;;;;;;;7.66;98.71;98886.84;5073557;28;20630;-75
2023/12/02 08:51:54;;;;;;;48.30;31.07;;;;;;;7.71;100.00;98884.44;5073616;28;20196;-75
2023/12/02 08:54:21;;;;;;;47.40;33.70;;;;;;;7.74;99.24;98865.56;5073525;28;20199;-75
2023/12/02 08:56:49;;;;;;;42.27;28.03;;;;;;;7.77;100.00;98867.81;5073520;28;20280;-75
2023/12/02 08:59:16;;;;;;;46.77;30.43;;;;;;;7.89;99.88;98877.69;5073599;28;20233;-75
2023/12/02 09:01:43;;;;;;;36.70;27.77;;;;;;;7.96;99.91;98878.50;5073242;28;20602;-75
2023/12/02 09:04:10;;;;;;;37.47;26.83;;;;;;;8.03;99.70;98873.25;5072957;28;20243;-75
2023/12/02 09:06:37;;;;;;;37.57;25.90;;;;;;;8.11;99.47;98875.75;5073052;28;20285;-75
2023/12/02 09:09:03;;;;;;;33.30;25.70;;;;;;;8.15;98.40;98845.25;5073088;28;20196;-74
2023/12/02 09:11:30;;;;;;;34.33;24.93;;;;;;;8.24;99.18;98844.09;5072648;28;20203;-75
2023/12/02 09:13:58;;;;;;;31.87;25.17;;;;;;;8.30;98.16;98853.91;5073316;28;20196;-75
2023/12/02 09:16:27;;;;;;;44.57;25.93;;;;;;;8.30;97.53;98848.63;5073148;28;20206;-75
2023/12/02 09:18:54;;;;;;;37.37;24.57;;;;;;;8.41;97.96;98848.06;5073168;28;20249;-75
2023/12/02 09:21:43;;;;;;;33.90;22.80;;;;;;;8.51;97.44;98836.09;5072423;28;20245;-75
2023/12/02 09:24:34;;;;;;;40.17;25.57;;;;;;;8.57;95.47;98831.81;5070058;28;20209;-75
2023/12/02 09:27:05;;;;;;;34.77;25.27;;;;;;;8.58;95.28;98830.81;5072661;28;20906;-75
2023/12/02 09:29:36;;;;;;;33.93;24.00;;;;;;;8.64;97.17;98830.81;5072219;28;20721;-74
2023/12/02 09:32:30;;;;;;;33.77;25.00;;;;;;;8.64;95.52;98835.28;5072436;28;20218;-76
2023/12/02 09:34:59;;;;;;;36.17;24.73;;;;;;;8.66;96.86;98825.34;5071827;28;20199;-75
2023/12/02 09:37:53;;;;;;;35.90;25.07;;;;;;;8.72;95.99;98819.22;5072090;28;20260;-75
2023/12/02 09:40:48;;;;;;;34.37;23.90;;;;;;;8.83;97.26;98814.16;5072248;28;20257;-75
2023/12/02 09:43:25;;;;;;;33.40;23.70;;;;;;;8.96;95.91;98829.25;5072787;28;20276;-75
2023/12/02 09:46:16;;;;;;;40.07;25.10;;;;;;;9.09;95.83;98818.66;5071762;28;20223;-75
2023/12/02 09:48:53;;;;;;;57.53;34.67;;;;;;;9.15;94.97;98821.31;5072144;28;20257;-75
2023/12/02 09:51:33;;;;;;;36.63;29.17;;;;;;;9.11;95.22;98822.75;5071841;28;20652;-75
2023/12/02 09:54:11;;;;;;;37.73;26.23;;;;;;;9.21;95.62;98823.16;5072764;28;20184;-75
2023/12/02 09:56:42;;;;;;;38.83;27.27;;;;;;;9.21;94.70;98811.75;5072151;28;20264;-76
2023/12/02 09:59:15;;;;;;;34.80;26.23;;;;;;;9.33;94.78;98799.50;5072615;28;20254;-75
2023/12/02 10:01:47;;;;;;;37.63;25.50;;;;;;;9.42;94.49;98799.09;5071949;28;20278;-76
2023/12/02 10:04:30;;;;;;;34.13;25.53;;;;;;;9.45;93.20;98792.56;5072423;28;20190;-75
2023/12/02 10:07:03;;;;;;;31.10;24.67;;;;;;;9.50;93.01;98800.72;5072357;28;20277;-75
2023/12/02 10:09:43;;;;;;;46.03;26.87;;;;;;;9.55;93.83;98792.94;5071918;28;20184;-75
2023/12/02 10:12:24;;;;;;;34.40;25.53;;;;;;;9.43;93.95;98786.66;5072285;28;20245;-75
2023/12/02 10:14:59;;;;;;;37.17;25.80;;;;;;;9.54;94.08;98764.81;5072241;28;20593;-75
2023/12/02 10:17:31;;;;;;;38.33;28.80;;;;;;;9.50;92.97;98761.78;5071760;28;20191;-76
2023/12/02 10:20:05;;;;;;;45.83;28.40;;;;;;;9.60;93.93;98769.31;5071856;28;20192;-75
2023/12/02 10:22:35;;;;;;;41.77;29.00;;;;;;;9.66;93.81;98768.47;5071734;28;20190;-75
2023/12/02 10:25:05;;;;;;;43.77;29.80;;;;;;;9.51;93.67;98755.44;5071496;28;20195;-75
2023/12/02 10:27:37;;;;;;;45.83;31.00;;;;;;;9.60;94.75;98759.50;5072304;28;20276;-75
2023/12/02 10:30:10;;;;;;;66.70;41.93;;;;;;;9.69;94.19;98757.47;5072061;28;20280;-75
2023/12/02 10:32:55;;;;;;;47.07;32.90;;;;;;;9.77;93.63;98759.88;5070826;28;20481;-75
2023/12/02 10:35:30;;;;;;;55.97;33.50;;;;;;;9.73;92.79;98754.16;5071457;28;20195;-75
2023/12/02 10:38:05;;;;;;;55.83;34.40;;;;;;;9.70;93.66;98759.06;5071878;28;20197;-74
2023/12/02 10:40:33;;;;;;;54.97;33.17;;;;;;;9.59;93.78;98747.28;5071893;28;20399;-75
2023/12/02 10:43:06;;;;;;;48.57;32.73;;;;;;;9.70;94.29;98743.16;5071329;28;20741;-74
2023/12/02 10:45:38;;;;;;;52.93;34.97;;;;;;;9.80;93.84;98740.91;5071188;28;20691;-75
2023/12/02 10:48:08;;;;;;;53.97;31.77;;;;;;;9.91;93.80;98746.38;5071973;28;20222;-74
2023/12/02 10:50:36;;;;;;;53.50;31.70;;;;;;;9.87;93.76;98739.03;5071557;28;20741;-74
2023/12/02 10:53:04;;;;;;;46.53;33.10;;;;;;;9.97;95.01;98724.28;5071542;28;20672;-75
2023/12/02 10:55:32;;;;;;;45.53;32.07;;;;;;;10.05;94.21;98713.47;5071466;28;20290;-77
2023/12/02 10:58:03;;;;;;;41.37;27.90;;;;;;;10.09;93.63;98700.63;5071757;28;20192;-75
2023/12/02 11:00:34;;;;;;;39.17;26.77;;;;;;;10.22;93.05;98706.66;5071716;28;20238;-75
2023/12/02 11:03:06;;;;;;;34.47;25.40;;;;;;;10.18;91.97;98700.13;5071533;28;20717;-74
2023/12/02 11:05:38;;;;;;;34.67;24.73;;;;;;;10.25;92.81;98689.50;5071499;28;20274;-75
2023/12/02 11:08:09;;;;;;;29.00;21.77;;;;;;;10.52;92.21;98701.56;5071517;28;20187;-75
2023/12/02 11:10:43;;;;;;;42.73;21.70;;;;;;;10.78;91.88;98707.50;5071370;28;20245;-75
2023/12/02 11:13:13;;;;;;;31.70;23.30;;;;;;;11.08;92.03;98718.28;5070550;28;20634;-75
2023/12/02 11:15:55;;;;;;;32.57;22.27;;;;;;;11.36;89.84;98709.84;5070061;28;20203;-75
2023/12/02 11:18:35;;;;;;;23.87;19.87;;;;;;;11.47;87.55;98723.22;5070369;28;20181;-75
2023/12/02 11:21:05;;;;;;;39.87;21.77;;;;;;;11.59;87.84;98721.47;5069911;28;20554;-75
2023/12/02 11:23:51;;;;;;;31.73;21.57;;;;;;;11.62;87.49;98705.09;5071089;28;20278;-75
2023/12/02 11:26:29;;;;;;;28.17;22.33;;;;;;;11.83;85.81;98717.94;5071193;28;20691;-76